Time;durP1;ratioP1;P1;durP2;ratioP2;P2;SDS_P1;SDS_P2;PMS_P1;PMS_P2;Temp;Humidity;BMP_temperature;BMP_pressure;BME280_temperature;BME280_humidity;BME280_pressure;Samples;Min_cycle;Max_cycle;Signal;HPM_P1;HPM_P2
2022/11/16 00:02:06;;;;;;;23.60;12.37;;;6.00;99.90;;;;;;5015147;28;20207;-73
2022/11/16 00:04:35;;;;;;;20.60;11.60;;;6.10;99.90;;;;;;5015226;28;20221;-73
2022/11/16 00:07:02;;;;;;;22.27;12.20;;;6.10;99.90;;;;;;5014089;28;20626;-74
2022/11/16 00:09:30;;;;;;;21.50;12.57;;;6.00;99.90;;;;;;5014198;28;20199;-73
2022/11/16 00:11:59;;;;;;;18.83;11.00;;;6.00;99.90;;;;;;5013647;28;20847;-73
2022/11/16 00:14:29;;;;;;;18.73;10.80;;;6.00;99.90;;;;;;5014538;28;20241;-73
2022/11/16 00:16:57;;;;;;;18.60;11.53;;;6.00;99.90;;;;;;5013478;28;20290;-72
2022/11/16 00:19:25;;;;;;;20.03;12.33;;;6.00;99.90;;;;;;5013913;28;20208;-73
2022/11/16 00:21:54;;;;;;;17.13;10.10;;;6.00;99.90;;;;;;5017258;28;20300;-72
2022/11/16 00:24:22;;;;;;;19.97;10.87;;;6.00;99.90;;;;;;5015370;28;20635;-71
2022/11/16 00:26:49;;;;;;;21.07;11.97;;;6.00;99.90;;;;;;5017497;28;20350;-72
2022/11/16 00:29:18;;;;;;;19.90;11.33;;;5.90;99.90;;;;;;5017891;28;20429;-71
2022/11/16 00:31:45;;;;;;;20.70;11.27;;;5.90;99.90;;;;;;5018635;28;20214;-71
2022/11/16 00:34:13;;;;;;;19.47;11.10;;;5.90;99.90;;;;;;5018021;28;20696;-72
2022/11/16 00:36:39;;;;;;;20.93;12.43;;;6.00;99.90;;;;;;5007407;28;20235;-73
2022/11/16 00:39:10;;;;;;;20.77;10.77;;;6.00;99.90;;;;;;5012433;28;20199;-71
2022/11/16 00:41:37;;;;;;;18.80;10.50;;;6.00;99.90;;;;;;5018196;28;20202;-71
2022/11/16 00:44:05;;;;;;;18.70;10.77;;;6.00;99.90;;;;;;5017805;28;20213;-72
2022/11/16 00:46:32;;;;;;;17.63;10.27;;;6.00;99.90;;;;;;5004280;28;20294;-72
2022/11/16 00:48:59;;;;;;;19.70;11.40;;;6.00;99.90;;;;;;5015888;28;20245;-72
2022/11/16 00:51:26;;;;;;;18.73;10.60;;;6.00;99.90;;;;;;5017322;28;20783;-70
2022/11/16 00:53:54;;;;;;;18.43;9.93;;;6.00;99.90;;;;;;5013984;28;20566;-71
2022/11/16 00:56:22;;;;;;;20.43;11.10;;;6.00;99.90;;;;;;5005521;28;20228;-71
2022/11/16 00:58:49;;;;;;;18.43;11.00;;;6.00;99.90;;;;;;5015130;28;20207;-71
2022/11/16 01:01:16;;;;;;;16.80;9.77;;;6.00;99.90;;;;;;5017455;28;20211;-71
2022/11/16 01:03:43;;;;;;;18.00;10.77;;;6.10;99.90;;;;;;5016884;28;20690;-71
2022/11/16 01:06:12;;;;;;;19.00;10.80;;;6.10;99.90;;;;;;5015862;28;20684;-71
2022/11/16 01:08:40;;;;;;;15.40;10.33;;;6.10;99.90;;;;;;5015992;28;20204;-71
2022/11/16 01:13:54;;;;;;;17.67;10.03;;;6.10;99.90;;;;;;5016861;28;20323;-71
2022/11/16 01:16:22;;;;;;;15.27;9.30;;;6.10;99.90;;;;;;5017109;28;20702;-71
2022/11/16 01:18:50;;;;;;;16.67;9.87;;;6.10;99.90;;;;;;5015538;28;20210;-71
2022/11/16 01:21:17;;;;;;;16.10;9.67;;;6.10;99.90;;;;;;5016090;28;20302;-71
2022/11/16 01:23:44;;;;;;;16.63;9.73;;;6.10;99.90;;;;;;5014475;28;20301;-71
2022/11/16 01:26:11;;;;;;;15.33;9.23;;;6.00;99.90;;;;;;5016454;28;20200;-71
2022/11/16 01:28:38;;;;;;;14.17;8.77;;;6.00;99.90;;;;;;5014283;28;20203;-71
2022/11/16 01:31:06;;;;;;;16.03;9.10;;;6.00;99.90;;;;;;5016105;28;20211;-72
2022/11/16 01:33:33;;;;;;;17.33;9.93;;;6.00;99.90;;;;;;5014611;28;20483;-71
2022/11/16 01:36:00;;;;;;;16.67;9.20;;;6.00;99.90;;;;;;5015564;28;20227;-69
2022/11/16 01:38:27;;;;;;;19.10;9.87;;;6.00;99.90;;;;;;5011567;28;20217;-73
2022/11/16 01:40:53;;;;;;;15.80;10.03;;;6.10;99.90;;;;;;5014488;28;20208;-72
2022/11/16 01:43:24;;;;;;;16.53;9.80;;;6.10;99.90;;;;;;5014905;28;20208;-72
2022/11/16 01:45:51;;;;;;;15.60;9.20;;;6.00;99.90;;;;;;5015500;28;20203;-71
2022/11/16 01:48:25;;;;;;;17.80;9.53;;;6.00;99.90;;;;;;5014813;28;20210;-70
2022/11/16 01:50:53;;;;;;;15.97;10.10;;;6.00;99.90;;;;;;5014820;28;20588;-71
2022/11/16 01:53:21;;;;;;;16.20;9.57;;;6.00;99.90;;;;;;5007726;28;20230;-72
2022/11/16 01:55:49;;;;;;;16.27;10.00;;;6.10;99.90;;;;;;5015172;28;20738;-72
2022/11/16 01:58:19;;;;;;;16.93;9.27;;;6.00;99.90;;;;;;5015778;28;20214;-71
2022/11/16 02:00:47;;;;;;;15.17;9.73;;;6.00;99.90;;;;;;5014452;28;20227;-70
2022/11/16 02:03:19;;;;;;;15.93;9.93;;;6.00;99.90;;;;;;5014131;28;20234;-71
2022/11/16 02:06:02;;;;;;;15.43;9.03;;;6.00;99.90;;;;;;5003748;28;20652;-71
2022/11/16 02:11:45;;;;;;;13.53;8.53;;;6.00;99.90;;;;;;5014684;28;20800;-72
2022/11/16 02:14:22;;;;;;;13.80;8.43;;;6.00;99.90;;;;;;5007449;28;20207;-73
2022/11/16 02:16:59;;;;;;;14.43;8.87;;;6.00;99.90;;;;;;5012898;28;20719;-72
2022/11/16 02:19:44;;;;;;;12.60;8.13;;;6.00;99.90;;;;;;5013119;28;20199;-71
2022/11/16 02:22:24;;;;;;;14.23;8.00;;;6.00;99.90;;;;;;5010718;28;20215;-71
2022/11/16 02:24:59;;;;;;;13.83;8.27;;;6.00;99.90;;;;;;5015483;28;20290;-71
2022/11/16 02:28:04;;;;;;;13.23;8.03;;;6.00;99.90;;;;;;5012491;28;20199;-72
2022/11/16 02:30:33;;;;;;;14.63;8.30;;;6.00;99.90;;;;;;5015270;28;20234;-71
2022/11/16 02:33:04;;;;;;;11.93;7.33;;;5.90;99.90;;;;;;5012024;28;20211;-72
2022/11/16 02:35:33;;;;;;;13.83;7.97;;;5.90;99.90;;;;;;5015541;28;20204;-71
2022/11/16 02:38:03;;;;;;;13.20;8.40;;;6.00;99.90;;;;;;5014285;28;20207;-72
2022/11/16 02:40:33;;;;;;;14.03;8.93;;;6.00;99.90;;;;;;5010488;28;20218;-72
2022/11/16 02:43:05;;;;;;;15.50;8.90;;;6.00;99.90;;;;;;5010461;28;20535;-71
2022/11/16 02:45:36;;;;;;;16.57;8.67;;;6.00;99.90;;;;;;5015057;28;20297;-71
2022/11/16 02:48:08;;;;;;;15.10;8.57;;;6.00;99.90;;;;;;5006147;28;20207;-72
2022/11/16 02:50:36;;;;;;;14.07;8.47;;;6.00;99.90;;;;;;5015083;28;20207;-72
2022/11/16 02:53:04;;;;;;;13.03;8.67;;;6.00;99.90;;;;;;5013085;28;20206;-71
2022/11/16 02:55:34;;;;;;;14.60;9.03;;;6.00;99.90;;;;;;5014462;28;20643;-70
2022/11/16 02:58:02;;;;;;;14.07;8.97;;;6.10;99.90;;;;;;5014069;28;20231;-73
2022/11/16 03:00:35;;;;;;;18.07;9.53;;;6.00;99.90;;;;;;5014210;28;20223;-73
2022/11/16 03:03:18;;;;;;;13.97;8.63;;;6.10;99.90;;;;;;5012476;28;20199;-72
2022/11/16 03:05:48;;;;;;;14.73;8.37;;;6.10;99.90;;;;;;5010053;28;20203;-72
2022/11/16 03:08:21;;;;;;;15.30;8.60;;;6.10;99.90;;;;;;5010969;28;20208;-71
2022/11/16 03:13:40;;;;;;;13.63;9.10;;;6.00;99.90;;;;;;5012433;28;20261;-72
2022/11/16 03:16:14;;;;;;;15.97;9.00;;;6.10;99.90;;;;;;5013830;28;20231;-71
2022/11/16 03:18:44;;;;;;;15.83;8.97;;;6.10;99.90;;;;;;5008035;28;20673;-71
2022/11/16 03:21:19;;;;;;;15.67;9.57;;;6.10;99.90;;;;;;5010396;28;20219;-71
2022/11/16 03:23:46;;;;;;;15.80;9.33;;;6.10;99.90;;;;;;5006142;28;20206;-70
2022/11/16 03:26:16;;;;;;;16.60;10.57;;;6.00;99.90;;;;;;5011075;28;20209;-73
2022/11/16 03:28:50;;;;;;;15.47;8.93;;;6.10;99.90;;;;;;5010793;28;20211;-72
2022/11/16 03:31:25;;;;;;;16.37;10.30;;;6.00;99.90;;;;;;5010685;28;20199;-73
2022/11/16 03:33:55;;;;;;;16.67;10.50;;;6.10;99.90;;;;;;4995396;28;20210;-72
2022/11/16 03:36:27;;;;;;;19.07;10.67;;;6.00;99.90;;;;;;5011256;28;20223;-70
2022/11/16 03:38:56;;;;;;;16.93;10.33;;;6.00;99.90;;;;;;5008926;28;20230;-72
2022/11/16 03:41:24;;;;;;;17.57;10.67;;;6.10;99.90;;;;;;5011900;28;20211;-71
2022/11/16 03:43:52;;;;;;;18.07;10.67;;;6.10;99.90;;;;;;5011196;28;20218;-72
2022/11/16 03:46:20;;;;;;;15.87;10.20;;;6.10;99.90;;;;;;5010383;28;20206;-72
2022/11/16 03:48:47;;;;;;;18.63;10.73;;;6.10;99.90;;;;;;5011802;28;20213;-71
2022/11/16 03:51:14;;;;;;;18.97;11.23;;;6.00;99.90;;;;;;5010553;28;20290;-72
2022/11/16 03:53:41;;;;;;;18.57;10.17;;;6.10;99.90;;;;;;5009260;28;20207;-74
2022/11/16 03:56:08;;;;;;;19.33;10.57;;;6.10;99.90;;;;;;5013004;28;20234;-73
2022/11/16 03:58:34;;;;;;;16.60;10.97;;;6.00;99.90;;;;;;5015385;28;20294;-72
2022/11/16 04:01:03;;;;;;;17.57;10.30;;;6.00;99.90;;;;;;5014076;28;20226;-73
2022/11/16 04:03:31;;;;;;;20.83;11.53;;;6.00;99.90;;;;;;5014826;28;20746;-72
2022/11/16 04:25:21;;;;;;;20.40;10.70;;;6.10;99.90;;;;;;5013986;28;20211;-70
2022/11/16 04:37:47;;;;;;;19.03;10.50;;;6.00;99.90;;;;;;5012444;28;20198;-72
2022/11/16 04:38:52;;;;;;;19.87;11.57;;;6.00;99.90;;;;;;5012765;28;20206;-70
2022/11/16 04:44:04;;;;;;;19.60;11.67;;;6.00;99.90;;;;;;5018680;28;20226;-69
2022/11/16 04:49:16;;;;;;;20.47;12.00;;;6.10;99.90;;;;;;5014910;28;20395;-71
2022/11/16 04:51:44;;;;;;;21.23;12.30;;;6.10;99.90;;;;;;5014137;28;20679;-70
2022/11/16 04:54:11;;;;;;;23.43;12.30;;;6.10;99.90;;;;;;5018427;28;20211;-70
2022/11/16 04:56:37;;;;;;;18.30;11.60;;;6.10;99.90;;;;;;5014495;28;20227;-71
2022/11/16 04:59:04;;;;;;;22.93;12.57;;;6.20;99.90;;;;;;5011604;28;20599;-71
2022/11/16 05:04:15;;;;;;;21.67;12.30;;;6.20;99.90;;;;;;5031600;28;20225;-68
2022/11/16 05:06:43;;;;;;;20.73;12.53;;;6.20;99.90;;;;;;5032196;28;20255;-70
2022/11/16 05:09:10;;;;;;;18.87;11.27;;;6.20;99.90;;;;;;5031216;28;20215;-69
2022/11/16 05:11:37;;;;;;;22.47;12.37;;;6.20;99.90;;;;;;5030661;28;20253;-70
2022/11/16 05:14:04;;;;;;;22.43;12.13;;;6.20;99.90;;;;;;5026330;28;20410;-70
2022/11/16 05:16:31;;;;;;;21.13;12.60;;;6.20;99.90;;;;;;5031427;28;20225;-68
2022/11/16 05:21:43;;;;;;;19.93;11.50;;;6.20;99.90;;;;;;5031999;28;20218;-67
2022/11/16 05:26:55;;;;;;;22.50;13.40;;;6.20;99.90;;;;;;5032589;28;20202;-69
2022/11/16 05:29:22;;;;;;;23.97;12.53;;;6.20;99.90;;;;;;5028534;28;20214;-69
2022/11/16 05:31:48;;;;;;;23.80;12.37;;;6.20;99.90;;;;;;5021428;28;20230;-71
2022/11/16 05:34:15;;;;;;;24.83;13.50;;;6.30;99.90;;;;;;5016039;28;20750;-71
2022/11/16 05:36:43;;;;;;;24.00;13.60;;;6.30;99.90;;;;;;5013906;28;20239;-70
2022/11/16 05:39:11;;;;;;;20.80;13.00;;;6.30;99.90;;;;;;5010935;28;20653;-71
2022/11/16 05:41:38;;;;;;;22.07;12.33;;;6.30;99.90;;;;;;5013103;28;20218;-69
2022/11/16 05:44:04;;;;;;;22.33;12.57;;;6.30;99.90;;;;;;5011922;28;20225;-70
2022/11/16 05:46:31;;;;;;;22.57;12.47;;;6.30;99.90;;;;;;5009462;28;20210;-71
2022/11/16 05:49:00;;;;;;;20.80;11.87;;;6.30;99.90;;;;;;5012162;28;20211;-71
2022/11/16 05:51:27;;;;;;;21.27;12.47;;;6.30;99.90;;;;;;5007827;28;20207;-71
2022/11/16 05:53:55;;;;;;;19.93;12.87;;;6.30;99.90;;;;;;5012546;28;20215;-71
2022/11/16 05:56:21;;;;;;;24.70;13.50;;;6.30;99.90;;;;;;5012771;28;20207;-70
2022/11/16 05:58:48;;;;;;;20.30;12.27;;;6.30;99.90;;;;;;5011801;28;20241;-69
2022/11/16 06:01:15;;;;;;;25.63;15.47;;;6.30;99.90;;;;;;5011116;28;20215;-72
2022/11/16 06:03:42;;;;;;;22.13;12.73;;;6.30;99.90;;;;;;5010500;28;20779;-72
2022/11/16 06:06:11;;;;;;;22.13;13.17;;;6.30;99.90;;;;;;5011833;28;20207;-71
2022/11/16 06:08:38;;;;;;;25.10;12.53;;;6.30;99.90;;;;;;5009717;28;20195;-70
2022/11/16 06:11:08;;;;;;;22.90;13.53;;;6.30;99.90;;;;;;5011817;28;20750;-69
2022/11/16 06:13:36;;;;;;;20.30;11.40;;;6.30;99.90;;;;;;5008564;28;20211;-72
2022/11/16 06:16:04;;;;;;;21.47;12.17;;;6.30;99.90;;;;;;5009487;28;20203;-71
2022/11/16 06:18:32;;;;;;;21.50;11.87;;;6.30;99.90;;;;;;5005948;28;20318;-72
2022/11/16 06:20:58;;;;;;;19.83;12.37;;;6.30;99.90;;;;;;5011649;28;20207;-71
2022/11/16 06:23:25;;;;;;;19.73;11.33;;;6.30;99.90;;;;;;5012636;28;20215;-73
2022/11/16 06:25:54;;;;;;;16.23;10.17;;;6.30;99.90;;;;;;5014748;28;20227;-72
2022/11/16 06:28:23;;;;;;;16.33;10.80;;;6.20;99.90;;;;;;5013824;28;20221;-72
2022/11/16 06:30:50;;;;;;;19.73;10.93;;;6.20;99.90;;;;;;5011165;28;20291;-75
2022/11/16 06:33:17;;;;;;;19.73;12.20;;;6.20;99.90;;;;;;5010937;28;20211;-73
2022/11/16 06:35:44;;;;;;;19.43;11.10;;;6.20;99.90;;;;;;5014156;28;20227;-72
2022/11/16 06:38:17;;;;;;;20.63;11.83;;;6.20;99.90;;;;;;5009512;28;20223;-72
2022/11/16 06:40:46;;;;;;;20.27;12.07;;;6.20;99.90;;;;;;5013293;28;20204;-74
2022/11/16 06:43:12;;;;;;;16.53;10.80;;;6.30;99.90;;;;;;5013936;28;20215;-71
2022/11/16 06:45:41;;;;;;;20.17;10.83;;;6.30;99.90;;;;;;5012625;28;20569;-74
2022/11/16 06:48:14;;;;;;;20.27;11.60;;;6.20;99.90;;;;;;5016136;28;20214;-75
2022/11/16 06:50:42;;;;;;;20.53;11.57;;;6.30;99.90;;;;;;5015220;28;20207;-72
2022/11/16 06:53:11;;;;;;;17.00;10.70;;;6.20;99.90;;;;;;5027116;28;20267;-72
2022/11/16 06:55:38;;;;;;;20.53;11.47;;;6.30;99.90;;;;;;5014162;28;20204;-70
2022/11/16 06:58:05;;;;;;;17.27;10.60;;;6.30;99.90;;;;;;5006663;28;20610;-71
2022/11/16 07:00:32;;;;;;;15.37;10.20;;;6.30;99.90;;;;;;5009088;28;20219;-71
2022/11/16 07:03:02;;;;;;;20.20;10.57;;;6.30;99.90;;;;;;5010232;28;20214;-67
2022/11/16 07:05:28;;;;;;;17.53;10.87;;;6.30;99.90;;;;;;5008925;28;20604;-69
2022/11/16 07:07:56;;;;;;;15.57;10.47;;;6.30;99.90;;;;;;5010742;28;20562;-71
2022/11/16 07:10:23;;;;;;;18.13;10.87;;;6.30;99.90;;;;;;5014156;28;20231;-72
2022/11/16 07:12:53;;;;;;;17.93;10.50;;;6.30;99.90;;;;;;5014392;28;20640;-70
2022/11/16 07:15:23;;;;;;;16.13;10.63;;;6.30;99.90;;;;;;5008937;28;20207;-70
2022/11/16 07:17:50;;;;;;;15.30;9.90;;;6.30;99.90;;;;;;5009537;28;20238;-71
2022/11/16 07:20:18;;;;;;;17.23;10.40;;;6.30;99.90;;;;;;5011982;28;20203;-72
2022/11/16 07:22:45;;;;;;;18.27;10.97;;;6.30;99.90;;;;;;5007255;28;20212;-70
2022/11/16 07:25:11;;;;;;;17.83;10.87;;;6.30;99.90;;;;;;5005008;28;20211;-69
2022/11/16 07:27:38;;;;;;;18.03;11.53;;;6.30;99.90;;;;;;5010278;28;20222;-70
2022/11/16 07:30:06;;;;;;;17.97;10.23;;;6.30;99.90;;;;;;5013804;28;20222;-70
2022/11/16 07:32:33;;;;;;;19.60;11.90;;;6.30;99.90;;;;;;5017941;28;20215;-70
2022/11/16 07:35:00;;;;;;;21.30;11.57;;;6.30;99.90;;;;;;5010961;28;20200;-69
2022/11/16 07:37:28;;;;;;;20.33;10.73;;;6.40;99.90;;;;;;4992289;28;20602;-67
2022/11/16 07:39:55;;;;;;;20.53;11.40;;;6.40;99.90;;;;;;5016769;28;20254;-71
2022/11/16 07:42:22;;;;;;;21.43;11.67;;;6.50;99.90;;;;;;5013042;28;20213;-71
2022/11/16 07:44:48;;;;;;;17.60;10.57;;;6.60;99.90;;;;;;5008850;28;20212;-70
2022/11/16 07:47:15;;;;;;;20.13;11.97;;;6.60;99.90;;;;;;5011464;28;20203;-68
2022/11/16 07:49:42;;;;;;;22.63;12.20;;;6.60;99.90;;;;;;5005376;28;20210;-70
2022/11/16 07:52:09;;;;;;;22.23;11.83;;;6.60;99.90;;;;;;5002060;28;20211;-66
2022/11/16 07:54:37;;;;;;;21.60;12.90;;;6.60;99.90;;;;;;5007733;28;20274;-69
2022/11/16 07:57:04;;;;;;;21.90;13.10;;;6.70;99.90;;;;;;5006344;28;20630;-70
2022/11/16 07:59:31;;;;;;;21.57;12.07;;;6.70;99.90;;;;;;5011997;28;20561;-70
2022/11/16 08:01:58;;;;;;;21.10;12.53;;;6.70;99.90;;;;;;5010965;28;20211;-71
2022/11/16 08:04:25;;;;;;;22.60;12.33;;;6.70;99.90;;;;;;5010544;28;20242;-69
2022/11/16 08:06:52;;;;;;;24.10;12.23;;;6.70;99.90;;;;;;5013093;28;20216;-71
2022/11/16 08:09:18;;;;;;;21.97;13.03;;;6.70;99.90;;;;;;5014059;28;20204;-65
2022/11/16 08:11:47;;;;;;;24.33;12.87;;;6.70;99.90;;;;;;5013622;28;20215;-62
2022/11/16 08:14:14;;;;;;;23.10;15.43;;;6.70;99.90;;;;;;5013809;28;20447;-63
2022/11/16 08:16:41;;;;;;;23.70;15.80;;;6.80;99.90;;;;;;5013998;28;20781;-66
2022/11/16 08:19:09;;;;;;;21.93;12.40;;;6.80;99.90;;;;;;5015176;28;20246;-65
2022/11/16 08:21:35;;;;;;;19.97;12.33;;;6.80;99.90;;;;;;5011582;28;20215;-64
2022/11/16 08:24:02;;;;;;;22.70;12.83;;;6.80;99.90;;;;;;5012188;28;20214;-65
2022/11/16 08:26:29;;;;;;;22.20;13.07;;;6.70;99.90;;;;;;5016003;28;20551;-66
2022/11/16 08:28:57;;;;;;;19.10;11.47;;;6.70;99.90;;;;;;5014971;28;20536;-66
2022/11/16 08:31:26;;;;;;;40.38;17.67;;;6.80;99.90;;;;;;5022615;28;20447;-68
2022/11/16 08:33:52;;;;;;;31.13;14.70;;;6.80;99.90;;;;;;5012108;28;20234;-68
2022/11/16 08:36:20;;;;;;;39.03;17.23;;;6.80;99.90;;;;;;5008064;28;20211;-65
2022/11/16 08:38:48;;;;;;;42.35;21.48;;;6.90;99.90;;;;;;5010347;28;20457;-66
2022/11/16 08:41:16;;;;;;;27.98;17.27;;;6.90;99.90;;;;;;5008813;28;20474;-68
2022/11/16 08:43:45;;;;;;;43.33;21.52;;;7.00;99.90;;;;;;5011543;28;20611;-63
2022/11/16 08:46:14;;;;;;;35.03;16.00;;;7.00;99.90;;;;;;5011641;28;20295;-66
2022/11/16 08:48:41;;;;;;;27.92;14.70;;;7.10;99.90;;;;;;5014366;28;20451;-66
2022/11/16 08:51:10;;;;;;;24.17;11.50;;;7.10;99.90;;;;;;5021930;28;20215;-73
2022/11/16 08:53:36;;;;;;;19.10;11.40;;;7.10;99.90;;;;;;5018072;28;20213;-72
2022/11/16 08:56:04;;;;;;;17.47;10.33;;;7.20;99.90;;;;;;5010578;28;20203;-72
2022/11/16 08:58:31;;;;;;;18.57;9.70;;;7.20;99.90;;;;;;5021038;28;20225;-69
2022/11/16 09:00:58;;;;;;;11.50;7.80;;;7.20;99.90;;;;;;5016683;28;20223;-72
2022/11/16 09:03:27;;;;;;;10.90;7.27;;;7.20;99.90;;;;;;5028562;28;20207;-74
2022/11/16 09:05:54;;;;;;;15.47;9.00;;;7.20;99.90;;;;;;5029143;28;20256;-72
2022/11/16 09:08:21;;;;;;;12.03;8.10;;;7.20;99.90;;;;;;5014847;28;20207;-71
2022/11/16 09:10:48;;;;;;;13.80;8.40;;;7.20;99.90;;;;;;5008925;28;20248;-69
2022/11/16 09:13:14;;;;;;;11.13;7.30;;;7.10;99.90;;;;;;5013859;28;20207;-69
2022/11/16 09:15:41;;;;;;;12.83;7.47;;;7.10;99.90;;;;;;5014264;28;20207;-70
2022/11/16 09:18:08;;;;;;;11.70;7.40;;;7.10;99.90;;;;;;5009498;28;20598;-69
2022/11/16 09:20:36;;;;;;;9.47;6.73;;;7.00;99.90;;;;;;5013580;28;20669;-69
2022/11/16 09:23:03;;;;;;;11.33;7.00;;;7.00;99.90;;;;;;5012106;28;21370;-70
2022/11/16 09:25:30;;;;;;;11.17;7.33;;;6.90;99.90;;;;;;5008548;28;20572;-71
2022/11/16 09:27:56;;;;;;;10.83;6.80;;;6.90;99.90;;;;;;5011769;28;20919;-71
2022/11/16 09:30:23;;;;;;;9.33;5.87;;;6.90;99.90;;;;;;5012743;28;20207;-71
2022/11/16 09:32:50;;;;;;;11.70;6.07;;;6.90;99.90;;;;;;5010429;28;20211;-71
2022/11/16 09:35:17;;;;;;;9.00;5.87;;;7.00;99.90;;;;;;5013341;28;20220;-71
2022/11/16 09:37:45;;;;;;;8.07;5.60;;;6.90;99.90;;;;;;5011151;28;20214;-70
2022/11/16 09:40:12;;;;;;;7.17;5.00;;;7.00;99.90;;;;;;5011689;28;20519;-76
2022/11/16 09:42:51;;;;;;;8.27;5.53;;;6.90;99.90;;;;;;5016265;28;20208;-72
2022/11/16 09:45:24;;;;;;;9.03;5.90;;;6.90;99.90;;;;;;5021294;28;20267;-73
2022/11/16 09:47:56;;;;;;;5.60;4.40;;;6.80;99.90;;;;;;5018558;28;20223;-74
2022/11/16 09:50:33;;;;;;;7.93;4.70;;;6.80;99.90;;;;;;5010675;28;20211;-72
2022/11/16 09:53:12;;;;;;;6.53;4.70;;;6.80;99.90;;;;;;5016619;28;20206;-71
2022/11/16 09:55:45;;;;;;;6.43;4.93;;;6.70;99.90;;;;;;5016334;28;20556;-73
2022/11/16 09:58:17;;;;;;;6.63;4.50;;;6.70;99.90;;;;;;5016283;28;20598;-72
2022/11/16 10:00:50;;;;;;;6.17;4.97;;;6.70;99.90;;;;;;5007993;28;20242;-72
2022/11/16 10:03:18;;;;;;;5.87;4.20;;;6.70;99.90;;;;;;5007488;28;20223;-70
2022/11/16 10:05:51;;;;;;;8.67;4.37;;;6.70;99.90;;;;;;5013328;28;20211;-70
2022/11/16 10:08:26;;;;;;;5.70;3.97;;;6.70;99.90;;;;;;5014894;28;20207;-71
2022/11/16 10:11:02;;;;;;;8.77;4.80;;;6.70;99.90;;;;;;5013474;28;20241;-71
2022/11/16 10:13:44;;;;;;;5.23;3.97;;;6.60;99.90;;;;;;5013588;28;20646;-76
2022/11/16 10:16:19;;;;;;;5.33;3.97;;;6.70;99.90;;;;;;5021720;28;20207;-72
2022/11/16 10:18:56;;;;;;;6.40;3.83;;;6.70;99.90;;;;;;5017440;28;20211;-71
2022/11/16 10:21:49;;;;;;;6.30;4.10;;;6.70;99.90;;;;;;5020977;28;20199;-72
2022/11/16 10:24:28;;;;;;;5.87;4.30;;;6.70;99.90;;;;;;5021373;28;20579;-73
2022/11/16 10:27:26;;;;;;;7.77;4.40;;;6.70;99.90;;;;;;5017848;28;20203;-70
2022/11/16 10:30:02;;;;;;;7.30;5.00;;;6.70;99.90;;;;;;5020122;28;20267;-70
2022/11/16 10:32:32;;;;;;;12.80;4.70;;;6.70;99.90;;;;;;5016849;28;20206;-71
2022/11/16 10:35:05;;;;;;;5.27;3.90;;;6.70;99.90;;;;;;5014103;28;20204;-72
2022/11/16 10:37:35;;;;;;;4.67;3.70;;;6.70;99.90;;;;;;5014691;28;20653;-73
2022/11/16 10:40:19;;;;;;;5.30;4.00;;;6.70;99.90;;;;;;5017497;28;20692;-72
2022/11/16 10:42:51;;;;;;;5.60;4.27;;;6.70;99.90;;;;;;5016230;28;20202;-72
2022/11/16 10:45:22;;;;;;;5.87;4.40;;;6.70;99.90;;;;;;5021259;28;20200;-69
2022/11/16 10:47:56;;;;;;;5.47;4.20;;;6.80;99.90;;;;;;5014106;28;20207;-71
2022/11/16 10:50:37;;;;;;;5.37;3.77;;;6.80;99.90;;;;;;5012914;28;20199;-69
2022/11/16 10:53:04;;;;;;;6.97;4.67;;;6.80;99.90;;;;;;5013159;28;20207;-69
2022/11/16 10:55:32;;;;;;;4.97;4.07;;;6.80;99.90;;;;;;5009970;28;20619;-72
2022/11/16 10:58:01;;;;;;;5.70;3.97;;;6.80;99.90;;;;;;5014454;28;20207;-70
2022/11/16 11:00:41;;;;;;;5.83;3.73;;;6.80;99.90;;;;;;5018294;28;20227;-72
2022/11/16 11:03:09;;;;;;;5.03;3.70;;;6.80;99.90;;;;;;5008499;28;20206;-72
2022/11/16 11:05:37;;;;;;;5.47;3.60;;;6.80;99.90;;;;;;5018018;28;20203;-72
2022/11/16 11:08:07;;;;;;;3.93;3.23;;;6.80;99.90;;;;;;5013419;28;20211;-69
2022/11/16 11:10:37;;;;;;;5.77;3.30;;;6.80;99.90;;;;;;5017243;28;20235;-72
2022/11/16 11:13:26;;;;;;;5.30;3.63;;;6.70;99.90;;;;;;5018846;28;20242;-69
2022/11/16 11:16:16;;;;;;;4.80;3.00;;;6.70;99.90;;;;;;5017731;28;20204;-70
2022/11/16 11:18:43;;;;;;;4.70;3.60;;;6.70;99.90;;;;;;5012943;28;20219;-70
2022/11/16 11:21:17;;;;;;;4.87;3.53;;;6.60;99.90;;;;;;5014558;28;20236;-67
2022/11/16 11:23:46;;;;;;;5.60;3.33;;;6.60;99.90;;;;;;5012925;28;20231;-68
2022/11/16 11:26:31;;;;;;;4.90;3.73;;;6.60;99.90;;;;;;5010083;28;20212;-69
2022/11/16 11:28:59;;;;;;;3.97;3.13;;;6.60;99.90;;;;;;5009673;28;20199;-70
2022/11/16 11:31:34;;;;;;;5.37;3.23;;;6.60;99.90;;;;;;5013536;28;20219;-68
2022/11/16 11:34:11;;;;;;;4.57;3.20;;;6.60;99.90;;;;;;5014430;28;20200;-67
2022/11/16 11:36:42;;;;;;;5.03;3.60;;;6.60;99.90;;;;;;5009704;28;20232;-70
2022/11/16 11:39:28;;;;;;;6.70;3.37;;;6.70;99.90;;;;;;5014706;28;20215;-70
2022/11/16 11:42:04;;;;;;;5.00;3.23;;;6.60;99.90;;;;;;5007942;28;20226;-70
2022/11/16 11:44:36;;;;;;;6.40;3.27;;;6.60;99.90;;;;;;5012783;28;20207;-71
2022/11/16 11:47:13;;;;;;;11.03;3.70;;;6.70;99.90;;;;;;5013493;28;20219;-69
2022/11/16 11:49:48;;;;;;;4.07;2.73;;;6.70;99.90;;;;;;5015487;28;20203;-72
2022/11/16 11:52:23;;;;;;;6.50;2.93;;;6.70;99.90;;;;;;5011971;28;20298;-69
2022/11/16 11:54:52;;;;;;;7.77;3.00;;;6.80;99.90;;;;;;5011911;28;20230;-72
2022/11/16 11:57:23;;;;;;;4.30;3.03;;;6.80;99.90;;;;;;5008807;28;20200;-71
2022/11/16 11:59:55;;;;;;;5.23;3.57;;;6.80;99.90;;;;;;5006915;28;20387;-71
2022/11/16 12:02:38;;;;;;;4.77;3.20;;;6.80;99.90;;;;;;5011721;28;20199;-70
2022/11/16 12:05:22;;;;;;;10.63;4.13;;;6.80;99.90;;;;;;5010198;28;20207;-71
2022/11/16 12:08:04;;;;;;;3.00;2.63;;;6.80;99.90;;;;;;5012557;28;20211;-70
2022/11/16 12:10:37;;;;;;;4.27;3.13;;;6.80;99.90;;;;;;5006956;28;20239;-71
2022/11/16 12:13:33;;;;;;;3.03;2.60;;;6.70;99.90;;;;;;5013486;28;20213;-70
2022/11/16 12:16:11;;;;;;;5.83;3.50;;;6.70;99.90;;;;;;5007279;28;20210;-70
2022/11/16 12:18:58;;;;;;;6.37;3.43;;;6.70;99.90;;;;;;5014491;28;20225;-71
2022/11/16 12:21:40;;;;;;;5.83;3.50;;;6.70;99.90;;;;;;5018874;28;20274;-75
2022/11/16 12:24:30;;;;;;;5.70;2.93;;;6.70;99.90;;;;;;5018195;28;20219;-72
2022/11/16 12:27:05;;;;;;;3.70;2.47;;;6.60;99.90;;;;;;5016320;28;20211;-73
2022/11/16 12:29:43;;;;;;;3.53;1.67;;;6.60;99.90;;;;;;5002930;28;20226;-71
2022/11/16 12:32:30;;;;;;;2.33;1.23;;;6.50;99.90;;;;;;5019034;28;20286;-71
2022/11/16 12:35:14;;;;;;;1.50;1.10;;;6.40;99.90;;;;;;5014259;28;20465;-69
2022/11/16 12:37:50;;;;;;;1.40;1.00;;;6.30;99.90;;;;;;5013938;28;20207;-70
2022/11/16 12:40:30;;;;;;;1.10;0.80;;;6.20;99.90;;;;;;5018859;28;20214;-72
2022/11/16 12:43:05;;;;;;;1.43;1.00;;;6.20;99.90;;;;;;5015217;28;20208;-71
2022/11/16 12:45:44;;;;;;;3.67;2.47;;;6.10;99.90;;;;;;5021622;28;20198;-69
2022/11/16 12:48:52;;;;;;;1.13;1.00;;;5.90;99.90;;;;;;5024483;28;20205;-69
2022/11/16 12:51:34;;;;;;;1.07;0.70;;;5.70;99.90;;;;;;5023141;28;20206;-71
2022/11/16 12:54:15;;;;;;;1.33;1.10;;;5.60;99.90;;;;;;5022254;28;20233;-71
2022/11/16 12:56:49;;;;;;;1.40;1.30;;;5.80;99.90;;;;;;5023653;28;20203;-70
2022/11/16 12:59:58;;;;;;;1.20;1.10;;;5.50;99.90;;;;;;5022072;28;20250;-70
2022/11/16 13:02:41;;;;;;;1.93;1.10;;;5.50;99.90;;;;;;4998202;28;20663;-71
2022/11/16 13:05:16;;;;;;;1.30;1.17;;;5.40;99.90;;;;;;5020006;28;20199;-70
2022/11/16 13:07:45;;;;;;;1.30;1.03;;;5.30;99.90;;;;;;5021537;28;20210;-71
2022/11/16 13:10:17;;;;;;;2.80;1.23;;;5.30;99.90;;;;;;5021236;28;20597;-68
2022/11/16 13:12:48;;;;;;;2.23;1.47;;;5.20;99.90;;;;;;5019187;28;20203;-69
2022/11/16 13:15:19;;;;;;;1.67;1.20;;;5.20;99.90;;;;;;5014877;28;20203;-72
2022/11/16 13:17:56;;;;;;;1.37;1.23;;;5.20;99.90;;;;;;5015538;28;20207;-71
2022/11/16 13:20:32;;;;;;;1.50;1.40;;;5.10;99.90;;;;;;5016666;28;20212;-70
2022/11/16 13:23:06;;;;;;;1.90;1.70;;;5.10;99.90;;;;;;5012856;28;20213;-71
2022/11/16 13:25:40;;;;;;;1.83;1.60;;;5.00;99.90;;;;;;5009019;28;20751;-69
2022/11/16 13:28:17;;;;;;;1.70;1.60;;;5.00;99.90;;;;;;5006984;28;20202;-70
2022/11/16 13:30:50;;;;;;;1.63;1.40;;;5.00;99.90;;;;;;5012444;28;20203;-70
2022/11/16 13:33:40;;;;;;;2.03;1.73;;;4.90;99.90;;;;;;5011206;28;20206;-70
2022/11/16 13:36:46;;;;;;;2.30;2.10;;;5.10;99.90;;;;;;5017457;28;20290;-71
2022/11/16 13:39:15;;;;;;;2.90;1.87;;;4.90;99.90;;;;;;5007476;28;20243;-71
2022/11/16 13:41:44;;;;;;;2.10;1.90;;;4.80;99.90;;;;;;5012506;28;20333;-70
2022/11/16 13:44:29;;;;;;;1.83;1.73;;;4.70;99.90;;;;;;5010505;28;20212;-72
2022/11/16 13:47:03;;;;;;;2.80;2.37;;;4.70;99.90;;;;;;5018290;28;20207;-70
2022/11/16 13:49:34;;;;;;;3.07;2.07;;;4.70;99.90;;;;;;5014496;28;20191;-73
2022/11/16 13:52:04;;;;;;;3.13;2.30;;;4.60;99.90;;;;;;5007311;28;20243;-70
2022/11/16 13:54:34;;;;;;;2.90;2.17;;;4.50;99.90;;;;;;5012377;28;20215;-70
2022/11/16 13:57:03;;;;;;;3.83;2.60;;;4.60;99.90;;;;;;5013230;28;20557;-70